sensor_id;sensor_type;location;lat;lon;timestamp;P1;durP1;ratioP1;P2;durP2;ratioP2
7150;SDS011;3617;48.836;9.172;2023-04-24T00:00:50;2.17;;;1.00;;
7150;SDS011;3617;48.836;9.172;2023-04-24T00:03:16;1.63;;;0.90;;
7150;SDS011;3617;48.836;9.172;2023-04-24T00:05:45;1.40;;;0.93;;
7150;SDS011;3617;48.836;9.172;2023-04-24T00:08:12;0.93;;;0.80;;
7150;SDS011;3617;48.836;9.172;2023-04-24T00:10:38;1.30;;;1.00;;
7150;SDS011;3617;48.836;9.172;2023-04-24T00:13:04;1.10;;;0.90;;
7150;SDS011;3617;48.836;9.172;2023-04-24T00:15:30;0.93;;;0.83;;
7150;SDS011;3617;48.836;9.172;2023-04-24T00:17:56;1.23;;;0.80;;
7150;SDS011;3617;48.836;9.172;2023-04-24T00:20:22;1.00;;;0.90;;
7150;SDS011;3617;48.836;9.172;2023-04-24T00:22:48;0.90;;;0.80;;
7150;SDS011;3617;48.836;9.172;2023-04-24T00:25:14;1.73;;;0.70;;
7150;SDS011;3617;48.836;9.172;2023-04-24T00:27:41;0.70;;;0.70;;
7150;SDS011;3617;48.836;9.172;2023-04-24T00:30:07;1.10;;;0.93;;
7150;SDS011;3617;48.836;9.172;2023-04-24T00:32:33;0.70;;;0.70;;
7150;SDS011;3617;48.836;9.172;2023-04-24T00:34:59;1.20;;;0.90;;
7150;SDS011;3617;48.836;9.172;2023-04-24T00:37:25;0.90;;;0.90;;
7150;SDS011;3617;48.836;9.172;2023-04-24T00:39:51;0.80;;;0.70;;
7150;SDS011;3617;48.836;9.172;2023-04-24T00:42:17;1.13;;;0.70;;
7150;SDS011;3617;48.836;9.172;2023-04-24T00:44:43;2.03;;;0.80;;
7150;SDS011;3617;48.836;9.172;2023-04-24T00:47:09;1.97;;;0.77;;
7150;SDS011;3617;48.836;9.172;2023-04-24T00:49:36;0.80;;;0.80;;
7150;SDS011;3617;48.836;9.172;2023-04-24T00:52:02;0.90;;;0.70;;
7150;SDS011;3617;48.836;9.172;2023-04-24T00:54:32;0.70;;;0.70;;
7150;SDS011;3617;48.836;9.172;2023-04-24T00:56:58;1.57;;;0.80;;
7150;SDS011;3617;48.836;9.172;2023-04-24T00:59:26;1.63;;;0.83;;
7150;SDS011;3617;48.836;9.172;2023-04-24T01:01:52;0.97;;;0.80;;
7150;SDS011;3617;48.836;9.172;2023-04-24T01:04:18;0.70;;;0.70;;
7150;SDS011;3617;48.836;9.172;2023-04-24T01:06:45;0.87;;;0.80;;
7150;SDS011;3617;48.836;9.172;2023-04-24T01:09:11;1.03;;;0.70;;
7150;SDS011;3617;48.836;9.172;2023-04-24T01:11:38;1.03;;;0.80;;
7150;SDS011;3617;48.836;9.172;2023-04-24T01:14:08;2.07;;;0.80;;
7150;SDS011;3617;48.836;9.172;2023-04-24T01:16:34;1.10;;;1.00;;
7150;SDS011;3617;48.836;9.172;2023-04-24T01:19:00;1.20;;;0.80;;
7150;SDS011;3617;48.836;9.172;2023-04-24T01:21:27;0.70;;;0.70;;
7150;SDS011;3617;48.836;9.172;2023-04-24T01:23:55;1.00;;;0.90;;
7150;SDS011;3617;48.836;9.172;2023-04-24T01:26:22;0.60;;;0.60;;
7150;SDS011;3617;48.836;9.172;2023-04-24T01:28:50;0.80;;;0.80;;
7150;SDS011;3617;48.836;9.172;2023-04-24T01:31:17;1.30;;;0.67;;
7150;SDS011;3617;48.836;9.172;2023-04-24T01:33:43;1.50;;;0.80;;
7150;SDS011;3617;48.836;9.172;2023-04-24T01:36:10;0.70;;;0.70;;
7150;SDS011;3617;48.836;9.172;2023-04-24T01:38:36;0.77;;;0.77;;
7150;SDS011;3617;48.836;9.172;2023-04-24T01:41:03;1.47;;;0.80;;
7150;SDS011;3617;48.836;9.172;2023-04-24T01:43:29;0.97;;;0.70;;
7150;SDS011;3617;48.836;9.172;2023-04-24T01:45:55;0.93;;;0.90;;
7150;SDS011;3617;48.836;9.172;2023-04-24T01:48:21;2.17;;;0.70;;
7150;SDS011;3617;48.836;9.172;2023-04-24T01:50:47;1.17;;;0.70;;
7150;SDS011;3617;48.836;9.172;2023-04-24T01:53:14;0.70;;;0.70;;
7150;SDS011;3617;48.836;9.172;2023-04-24T01:55:40;0.67;;;0.67;;
7150;SDS011;3617;48.836;9.172;2023-04-24T01:58:06;0.70;;;0.70;;
7150;SDS011;3617;48.836;9.172;2023-04-24T02:00:32;1.40;;;0.70;;
7150;SDS011;3617;48.836;9.172;2023-04-24T02:02:58;0.97;;;0.70;;
7150;SDS011;3617;48.836;9.172;2023-04-24T02:05:26;1.00;;;0.63;;
7150;SDS011;3617;48.836;9.172;2023-04-24T02:07:52;3.33;;;0.97;;
7150;SDS011;3617;48.836;9.172;2023-04-24T02:10:18;1.10;;;0.80;;
7150;SDS011;3617;48.836;9.172;2023-04-24T02:12:45;1.47;;;0.63;;
7150;SDS011;3617;48.836;9.172;2023-04-24T02:15:11;1.37;;;0.70;;
7150;SDS011;3617;48.836;9.172;2023-04-24T02:17:37;1.07;;;0.80;;
7150;SDS011;3617;48.836;9.172;2023-04-24T02:20:04;1.67;;;1.33;;
7150;SDS011;3617;48.836;9.172;2023-04-24T02:22:30;1.10;;;0.90;;
7150;SDS011;3617;48.836;9.172;2023-04-24T02:24:56;0.90;;;0.77;;
7150;SDS011;3617;48.836;9.172;2023-04-24T02:27:22;0.70;;;0.70;;
7150;SDS011;3617;48.836;9.172;2023-04-24T02:29:48;2.97;;;1.00;;
7150;SDS011;3617;48.836;9.172;2023-04-24T02:32:14;1.80;;;0.73;;
7150;SDS011;3617;48.836;9.172;2023-04-24T02:34:40;0.70;;;0.70;;
7150;SDS011;3617;48.836;9.172;2023-04-24T02:37:06;0.90;;;0.70;;
7150;SDS011;3617;48.836;9.172;2023-04-24T02:39:32;2.30;;;0.80;;
7150;SDS011;3617;48.836;9.172;2023-04-24T02:41:58;1.67;;;0.83;;
7150;SDS011;3617;48.836;9.172;2023-04-24T02:44:25;1.90;;;0.90;;
7150;SDS011;3617;48.836;9.172;2023-04-24T02:46:51;1.60;;;0.90;;
7150;SDS011;3617;48.836;9.172;2023-04-24T02:49:17;0.80;;;0.80;;
7150;SDS011;3617;48.836;9.172;2023-04-24T02:51:43;1.00;;;0.90;;
7150;SDS011;3617;48.836;9.172;2023-04-24T02:54:09;1.93;;;0.70;;
7150;SDS011;3617;48.836;9.172;2023-04-24T02:56:35;0.80;;;0.80;;
7150;SDS011;3617;48.836;9.172;2023-04-24T02:59:02;1.63;;;1.00;;
7150;SDS011;3617;48.836;9.172;2023-04-24T03:01:28;0.70;;;0.70;;
7150;SDS011;3617;48.836;9.172;2023-04-24T03:03:54;1.20;;;0.90;;
7150;SDS011;3617;48.836;9.172;2023-04-24T03:06:20;0.73;;;0.73;;
7150;SDS011;3617;48.836;9.172;2023-04-24T03:08:46;1.00;;;0.90;;
7150;SDS011;3617;48.836;9.172;2023-04-24T03:11:12;0.90;;;0.90;;
7150;SDS011;3617;48.836;9.172;2023-04-24T03:13:38;1.00;;;0.90;;
7150;SDS011;3617;48.836;9.172;2023-04-24T03:16:04;1.70;;;0.80;;
7150;SDS011;3617;48.836;9.172;2023-04-24T03:18:30;1.83;;;0.90;;
7150;SDS011;3617;48.836;9.172;2023-04-24T03:20:56;3.50;;;1.10;;
7150;SDS011;3617;48.836;9.172;2023-04-24T03:23:22;3.13;;;1.20;;
7150;SDS011;3617;48.836;9.172;2023-04-24T03:25:48;1.20;;;0.90;;
7150;SDS011;3617;48.836;9.172;2023-04-24T03:28:14;0.90;;;0.90;;
7150;SDS011;3617;48.836;9.172;2023-04-24T03:30:40;2.67;;;0.90;;
7150;SDS011;3617;48.836;9.172;2023-04-24T03:33:06;1.27;;;1.10;;
7150;SDS011;3617;48.836;9.172;2023-04-24T03:35:32;2.30;;;1.00;;
7150;SDS011;3617;48.836;9.172;2023-04-24T03:37:58;1.10;;;1.00;;
7150;SDS011;3617;48.836;9.172;2023-04-24T03:40:24;1.13;;;0.90;;
7150;SDS011;3617;48.836;9.172;2023-04-24T03:42:50;1.03;;;0.90;;
7150;SDS011;3617;48.836;9.172;2023-04-24T03:45:16;1.50;;;0.93;;
7150;SDS011;3617;48.836;9.172;2023-04-24T03:47:42;2.97;;;1.10;;
7150;SDS011;3617;48.836;9.172;2023-04-24T03:50:09;0.90;;;0.90;;
7150;SDS011;3617;48.836;9.172;2023-04-24T03:52:35;0.80;;;0.80;;
7150;SDS011;3617;48.836;9.172;2023-04-24T03:55:01;0.80;;;0.80;;
7150;SDS011;3617;48.836;9.172;2023-04-24T03:57:27;1.50;;;0.97;;
7150;SDS011;3617;48.836;9.172;2023-04-24T03:59:53;0.80;;;0.80;;
7150;SDS011;3617;48.836;9.172;2023-04-24T04:02:20;2.47;;;1.00;;
7150;SDS011;3617;48.836;9.172;2023-04-24T04:04:46;0.90;;;0.90;;
7150;SDS011;3617;48.836;9.172;2023-04-24T04:07:12;3.00;;;1.00;;
7150;SDS011;3617;48.836;9.172;2023-04-24T04:09:38;1.13;;;0.97;;
7150;SDS011;3617;48.836;9.172;2023-04-24T04:12:04;2.47;;;0.90;;
7150;SDS011;3617;48.836;9.172;2023-04-24T04:14:30;2.60;;;1.00;;
7150;SDS011;3617;48.836;9.172;2023-04-24T04:16:56;1.10;;;0.90;;
7150;SDS011;3617;48.836;9.172;2023-04-24T04:19:22;0.90;;;0.90;;
7150;SDS011;3617;48.836;9.172;2023-04-24T04:21:48;1.30;;;0.90;;
7150;SDS011;3617;48.836;9.172;2023-04-24T04:24:18;1.20;;;1.10;;
7150;SDS011;3617;48.836;9.172;2023-04-24T04:26:45;1.47;;;0.90;;
7150;SDS011;3617;48.836;9.172;2023-04-24T04:29:12;1.13;;;1.07;;
7150;SDS011;3617;48.836;9.172;2023-04-24T04:31:38;1.67;;;1.10;;
7150;SDS011;3617;48.836;9.172;2023-04-24T04:34:04;2.10;;;0.90;;
7150;SDS011;3617;48.836;9.172;2023-04-24T04:36:30;1.53;;;1.03;;
7150;SDS011;3617;48.836;9.172;2023-04-24T04:38:57;1.00;;;1.00;;
7150;SDS011;3617;48.836;9.172;2023-04-24T04:41:24;2.63;;;1.37;;
7150;SDS011;3617;48.836;9.172;2023-04-24T04:43:51;1.23;;;1.13;;
7150;SDS011;3617;48.836;9.172;2023-04-24T04:46:17;3.47;;;1.40;;
7150;SDS011;3617;48.836;9.172;2023-04-24T04:48:43;2.93;;;1.40;;
7150;SDS011;3617;48.836;9.172;2023-04-24T04:51:10;1.60;;;1.30;;
7150;SDS011;3617;48.836;9.172;2023-04-24T04:53:36;1.43;;;1.27;;
7150;SDS011;3617;48.836;9.172;2023-04-24T04:56:02;1.30;;;1.20;;
7150;SDS011;3617;48.836;9.172;2023-04-24T04:58:28;1.30;;;1.20;;
7150;SDS011;3617;48.836;9.172;2023-04-24T05:00:55;2.63;;;1.50;;
7150;SDS011;3617;48.836;9.172;2023-04-24T05:03:22;1.60;;;1.50;;
7150;SDS011;3617;48.836;9.172;2023-04-24T05:05:48;2.67;;;1.53;;
7150;SDS011;3617;48.836;9.172;2023-04-24T05:08:14;2.07;;;1.37;;
7150;SDS011;3617;48.836;9.172;2023-04-24T05:10:40;1.90;;;1.40;;
7150;SDS011;3617;48.836;9.172;2023-04-24T05:13:06;2.73;;;1.67;;
7150;SDS011;3617;48.836;9.172;2023-04-24T05:15:32;1.80;;;1.43;;
7150;SDS011;3617;48.836;9.172;2023-04-24T05:17:58;1.93;;;1.60;;
7150;SDS011;3617;48.836;9.172;2023-04-24T05:20:24;1.53;;;1.30;;
7150;SDS011;3617;48.836;9.172;2023-04-24T05:22:50;1.60;;;1.37;;
7150;SDS011;3617;48.836;9.172;2023-04-24T05:25:16;1.53;;;1.30;;
7150;SDS011;3617;48.836;9.172;2023-04-24T05:27:42;3.07;;;1.43;;
7150;SDS011;3617;48.836;9.172;2023-04-24T05:30:09;2.10;;;1.40;;
7150;SDS011;3617;48.836;9.172;2023-04-24T05:32:35;2.07;;;1.57;;
7150;SDS011;3617;48.836;9.172;2023-04-24T05:35:01;2.07;;;1.50;;
7150;SDS011;3617;48.836;9.172;2023-04-24T05:37:27;3.20;;;1.60;;
7150;SDS011;3617;48.836;9.172;2023-04-24T05:39:53;2.17;;;1.60;;
7150;SDS011;3617;48.836;9.172;2023-04-24T05:42:19;1.30;;;1.20;;
7150;SDS011;3617;48.836;9.172;2023-04-24T05:44:45;1.77;;;1.30;;
7150;SDS011;3617;48.836;9.172;2023-04-24T05:47:11;1.47;;;1.37;;
7150;SDS011;3617;48.836;9.172;2023-04-24T05:49:37;1.30;;;1.20;;
7150;SDS011;3617;48.836;9.172;2023-04-24T05:52:03;1.50;;;1.10;;
7150;SDS011;3617;48.836;9.172;2023-04-24T05:54:31;1.43;;;1.33;;
7150;SDS011;3617;48.836;9.172;2023-04-24T05:56:57;1.20;;;1.10;;
7150;SDS011;3617;48.836;9.172;2023-04-24T05:59:23;1.57;;;1.33;;
7150;SDS011;3617;48.836;9.172;2023-04-24T06:01:49;1.83;;;1.43;;
7150;SDS011;3617;48.836;9.172;2023-04-24T06:04:15;2.33;;;1.40;;
7150;SDS011;3617;48.836;9.172;2023-04-24T06:06:41;2.30;;;1.33;;
7150;SDS011;3617;48.836;9.172;2023-04-24T06:09:07;1.70;;;1.37;;
7150;SDS011;3617;48.836;9.172;2023-04-24T06:11:33;1.60;;;1.40;;
7150;SDS011;3617;48.836;9.172;2023-04-24T06:13:59;2.37;;;1.70;;
7150;SDS011;3617;48.836;9.172;2023-04-24T06:16:25;2.83;;;1.37;;
7150;SDS011;3617;48.836;9.172;2023-04-24T06:18:51;1.63;;;1.10;;
7150;SDS011;3617;48.836;9.172;2023-04-24T06:21:17;2.00;;;1.27;;
7150;SDS011;3617;48.836;9.172;2023-04-24T06:23:43;1.67;;;1.27;;
7150;SDS011;3617;48.836;9.172;2023-04-24T06:26:11;1.27;;;1.13;;
7150;SDS011;3617;48.836;9.172;2023-04-24T06:28:37;1.30;;;1.20;;
7150;SDS011;3617;48.836;9.172;2023-04-24T06:31:03;1.27;;;1.17;;
7150;SDS011;3617;48.836;9.172;2023-04-24T06:33:29;2.30;;;1.20;;
7150;SDS011;3617;48.836;9.172;2023-04-24T06:35:55;1.30;;;1.20;;
7150;SDS011;3617;48.836;9.172;2023-04-24T06:38:21;1.30;;;1.20;;
7150;SDS011;3617;48.836;9.172;2023-04-24T06:40:47;1.90;;;1.20;;
7150;SDS011;3617;48.836;9.172;2023-04-24T06:43:13;2.83;;;1.20;;
7150;SDS011;3617;48.836;9.172;2023-04-24T06:45:39;1.10;;;0.97;;
7150;SDS011;3617;48.836;9.172;2023-04-24T06:48:05;1.40;;;1.10;;
7150;SDS011;3617;48.836;9.172;2023-04-24T06:50:31;1.60;;;1.20;;
7150;SDS011;3617;48.836;9.172;2023-04-24T06:52:57;1.43;;;1.00;;
7150;SDS011;3617;48.836;9.172;2023-04-24T06:55:23;1.23;;;0.90;;
7150;SDS011;3617;48.836;9.172;2023-04-24T06:57:50;1.88;;;1.17;;
7150;SDS011;3617;48.836;9.172;2023-04-24T07:00:16;2.50;;;1.30;;
7150;SDS011;3617;48.836;9.172;2023-04-24T07:02:42;2.63;;;1.02;;
7150;SDS011;3617;48.836;9.172;2023-04-24T07:05:08;1.27;;;1.10;;
7150;SDS011;3617;48.836;9.172;2023-04-24T07:07:34;1.25;;;1.15;;
7150;SDS011;3617;48.836;9.172;2023-04-24T07:10:02;1.65;;;0.98;;
7150;SDS011;3617;48.836;9.172;2023-04-24T07:12:28;2.30;;;1.42;;
7150;SDS011;3617;48.836;9.172;2023-04-24T07:14:54;1.77;;;1.13;;
7150;SDS011;3617;48.836;9.172;2023-04-24T07:17:21;1.27;;;1.17;;
7150;SDS011;3617;48.836;9.172;2023-04-24T07:19:47;1.55;;;1.25;;
7150;SDS011;3617;48.836;9.172;2023-04-24T07:22:13;1.60;;;1.40;;
7150;SDS011;3617;48.836;9.172;2023-04-24T07:24:42;1.87;;;1.37;;
7150;SDS011;3617;48.836;9.172;2023-04-24T07:27:08;1.37;;;1.23;;
7150;SDS011;3617;48.836;9.172;2023-04-24T07:29:34;2.70;;;1.20;;
7150;SDS011;3617;48.836;9.172;2023-04-24T07:32:00;3.83;;;1.40;;
7150;SDS011;3617;48.836;9.172;2023-04-24T07:34:26;1.37;;;1.10;;
7150;SDS011;3617;48.836;9.172;2023-04-24T07:36:52;1.70;;;1.30;;
7150;SDS011;3617;48.836;9.172;2023-04-24T07:39:18;1.67;;;1.20;;
7150;SDS011;3617;48.836;9.172;2023-04-24T07:41:44;1.20;;;1.10;;
7150;SDS011;3617;48.836;9.172;2023-04-24T07:44:10;1.70;;;1.40;;
7150;SDS011;3617;48.836;9.172;2023-04-24T07:46:36;1.10;;;1.00;;
7150;SDS011;3617;48.836;9.172;2023-04-24T07:49:03;1.58;;;1.35;;
7150;SDS011;3617;48.836;9.172;2023-04-24T07:51:30;1.55;;;1.30;;
7150;SDS011;3617;48.836;9.172;2023-04-24T07:53:57;3.15;;;1.25;;
7150;SDS011;3617;48.836;9.172;2023-04-24T07:56:23;1.25;;;1.15;;
7150;SDS011;3617;48.836;9.172;2023-04-24T07:58:50;2.40;;;1.30;;
7150;SDS011;3617;48.836;9.172;2023-04-24T08:01:16;1.63;;;1.13;;
7150;SDS011;3617;48.836;9.172;2023-04-24T08:03:42;1.00;;;0.90;;
7150;SDS011;3617;48.836;9.172;2023-04-24T08:06:08;1.67;;;1.27;;
7150;SDS011;3617;48.836;9.172;2023-04-24T08:08:34;1.20;;;1.00;;
7150;SDS011;3617;48.836;9.172;2023-04-24T08:11:00;1.92;;;1.00;;
7150;SDS011;3617;48.836;9.172;2023-04-24T08:13:26;1.85;;;1.23;;
7150;SDS011;3617;48.836;9.172;2023-04-24T08:15:52;1.10;;;1.00;;
7150;SDS011;3617;48.836;9.172;2023-04-24T08:18:18;2.22;;;1.17;;
7150;SDS011;3617;48.836;9.172;2023-04-24T08:20:44;2.28;;;1.20;;
7150;SDS011;3617;48.836;9.172;2023-04-24T08:23:10;1.52;;;1.30;;
7150;SDS011;3617;48.836;9.172;2023-04-24T08:25:36;3.90;;;1.30;;
7150;SDS011;3617;48.836;9.172;2023-04-24T08:28:03;1.48;;;1.10;;
7150;SDS011;3617;48.836;9.172;2023-04-24T08:30:29;1.58;;;0.95;;
7150;SDS011;3617;48.836;9.172;2023-04-24T08:32:55;2.15;;;1.20;;
7150;SDS011;3617;48.836;9.172;2023-04-24T08:35:21;3.58;;;1.20;;
7150;SDS011;3617;48.836;9.172;2023-04-24T08:37:47;1.60;;;1.20;;
7150;SDS011;3617;48.836;9.172;2023-04-24T08:40:14;2.22;;;1.20;;
7150;SDS011;3617;48.836;9.172;2023-04-24T08:42:41;1.27;;;1.17;;
7150;SDS011;3617;48.836;9.172;2023-04-24T08:45:08;2.70;;;1.30;;
7150;SDS011;3617;48.836;9.172;2023-04-24T08:47:34;1.57;;;1.40;;
7150;SDS011;3617;48.836;9.172;2023-04-24T08:50:02;3.17;;;1.43;;
7150;SDS011;3617;48.836;9.172;2023-04-24T08:52:30;2.23;;;1.20;;
7150;SDS011;3617;48.836;9.172;2023-04-24T08:54:56;1.37;;;1.27;;
7150;SDS011;3617;48.836;9.172;2023-04-24T08:57:23;1.67;;;1.20;;
7150;SDS011;3617;48.836;9.172;2023-04-24T08:59:50;3.63;;;1.17;;
7150;SDS011;3617;48.836;9.172;2023-04-24T09:02:17;1.40;;;1.20;;
7150;SDS011;3617;48.836;9.172;2023-04-24T09:04:43;2.10;;;1.10;;
7150;SDS011;3617;48.836;9.172;2023-04-24T09:07:10;2.30;;;1.50;;
7150;SDS011;3617;48.836;9.172;2023-04-24T09:09:37;3.20;;;1.40;;
7150;SDS011;3617;48.836;9.172;2023-04-24T09:12:04;1.17;;;1.07;;
7150;SDS011;3617;48.836;9.172;2023-04-24T09:14:30;1.73;;;1.20;;
7150;SDS011;3617;48.836;9.172;2023-04-24T09:16:57;2.33;;;1.10;;
7150;SDS011;3617;48.836;9.172;2023-04-24T09:19:23;2.83;;;1.10;;
7150;SDS011;3617;48.836;9.172;2023-04-24T09:21:49;1.10;;;1.00;;
7150;SDS011;3617;48.836;9.172;2023-04-24T09:24:16;1.23;;;1.10;;
7150;SDS011;3617;48.836;9.172;2023-04-24T09:26:43;1.10;;;1.00;;
7150;SDS011;3617;48.836;9.172;2023-04-24T09:29:13;1.50;;;1.00;;
7150;SDS011;3617;48.836;9.172;2023-04-24T09:31:40;1.07;;;0.90;;
7150;SDS011;3617;48.836;9.172;2023-04-24T09:34:06;1.73;;;1.00;;
7150;SDS011;3617;48.836;9.172;2023-04-24T09:36:39;2.93;;;1.13;;
7150;SDS011;3617;48.836;9.172;2023-04-24T09:39:07;1.73;;;1.20;;
7150;SDS011;3617;48.836;9.172;2023-04-24T09:41:34;1.37;;;1.27;;
7150;SDS011;3617;48.836;9.172;2023-04-24T09:44:10;1.10;;;1.00;;
7150;SDS011;3617;48.836;9.172;2023-04-24T09:46:37;1.93;;;1.00;;
7150;SDS011;3617;48.836;9.172;2023-04-24T09:49:10;1.23;;;0.90;;
7150;SDS011;3617;48.836;9.172;2023-04-24T09:51:36;3.25;;;1.00;;
7150;SDS011;3617;48.836;9.172;2023-04-24T09:54:03;1.50;;;1.08;;
7150;SDS011;3617;48.836;9.172;2023-04-24T09:56:33;1.60;;;1.08;;
7150;SDS011;3617;48.836;9.172;2023-04-24T09:59:06;0.70;;;0.70;;
7150;SDS011;3617;48.836;9.172;2023-04-24T10:01:32;0.80;;;0.80;;
7150;SDS011;3617;48.836;9.172;2023-04-24T10:03:59;2.10;;;1.00;;
7150;SDS011;3617;48.836;9.172;2023-04-24T10:06:34;1.98;;;1.20;;
7150;SDS011;3617;48.836;9.172;2023-04-24T10:09:01;2.15;;;1.00;;
7150;SDS011;3617;48.836;9.172;2023-04-24T10:11:28;1.00;;;0.90;;
7150;SDS011;3617;48.836;9.172;2023-04-24T10:13:55;1.23;;;0.80;;
7150;SDS011;3617;48.836;9.172;2023-04-24T10:16:22;1.55;;;0.80;;
7150;SDS011;3617;48.836;9.172;2023-04-24T10:18:48;2.17;;;1.00;;
7150;SDS011;3617;48.836;9.172;2023-04-24T10:21:15;2.00;;;1.17;;
7150;SDS011;3617;48.836;9.172;2023-04-24T10:23:42;2.85;;;1.25;;
7150;SDS011;3617;48.836;9.172;2023-04-24T10:26:14;1.13;;;1.03;;
7150;SDS011;3617;48.836;9.172;2023-04-24T10:28:44;2.00;;;1.00;;
7150;SDS011;3617;48.836;9.172;2023-04-24T10:31:10;1.10;;;0.90;;
7150;SDS011;3617;48.836;9.172;2023-04-24T10:33:37;1.20;;;1.10;;
7150;SDS011;3617;48.836;9.172;2023-04-24T10:36:06;1.23;;;1.13;;
7150;SDS011;3617;48.836;9.172;2023-04-24T10:38:32;2.50;;;1.10;;
7150;SDS011;3617;48.836;9.172;2023-04-24T10:41:06;1.63;;;1.47;;
7150;SDS011;3617;48.836;9.172;2023-04-24T10:43:34;1.90;;;1.50;;
7150;SDS011;3617;48.836;9.172;2023-04-24T10:46:04;1.13;;;0.93;;
7150;SDS011;3617;48.836;9.172;2023-04-24T10:48:31;1.30;;;1.20;;
7150;SDS011;3617;48.836;9.172;2023-04-24T10:50:57;1.70;;;1.30;;
7150;SDS011;3617;48.836;9.172;2023-04-24T10:53:24;1.70;;;1.40;;
7150;SDS011;3617;48.836;9.172;2023-04-24T10:58:43;1.30;;;1.10;;
7150;SDS011;3617;48.836;9.172;2023-04-24T11:01:27;1.20;;;1.10;;
7150;SDS011;3617;48.836;9.172;2023-04-24T11:03:54;1.20;;;1.10;;
7150;SDS011;3617;48.836;9.172;2023-04-24T11:06:28;4.37;;;1.23;;
7150;SDS011;3617;48.836;9.172;2023-04-24T11:08:59;1.43;;;1.17;;
7150;SDS011;3617;48.836;9.172;2023-04-24T11:11:28;1.67;;;1.17;;
7150;SDS011;3617;48.836;9.172;2023-04-24T11:19:09;1.23;;;1.13;;
7150;SDS011;3617;48.836;9.172;2023-04-24T11:26:53;2.87;;;0.93;;
7150;SDS011;3617;48.836;9.172;2023-04-24T11:29:20;1.20;;;1.10;;
7150;SDS011;3617;48.836;9.172;2023-04-24T11:31:46;2.77;;;1.33;;
7150;SDS011;3617;48.836;9.172;2023-04-24T11:34:14;2.50;;;1.20;;
7150;SDS011;3617;48.836;9.172;2023-04-24T11:36:44;2.23;;;1.27;;
7150;SDS011;3617;48.836;9.172;2023-04-24T11:39:10;1.37;;;1.27;;
7150;SDS011;3617;48.836;9.172;2023-04-24T11:41:37;1.60;;;1.07;;
7150;SDS011;3617;48.836;9.172;2023-04-24T11:44:05;2.17;;;1.00;;
7150;SDS011;3617;48.836;9.172;2023-04-24T11:46:31;1.87;;;0.90;;
7150;SDS011;3617;48.836;9.172;2023-04-24T11:48:58;1.13;;;1.03;;
7150;SDS011;3617;48.836;9.172;2023-04-24T11:51:26;1.10;;;1.00;;
7150;SDS011;3617;48.836;9.172;2023-04-24T11:53:55;1.93;;;1.10;;
7150;SDS011;3617;48.836;9.172;2023-04-24T11:56:22;1.30;;;1.00;;
7150;SDS011;3617;48.836;9.172;2023-04-24T11:58:48;2.00;;;0.97;;
7150;SDS011;3617;48.836;9.172;2023-04-24T12:01:14;1.70;;;0.87;;
7150;SDS011;3617;48.836;9.172;2023-04-24T12:03:40;1.23;;;1.13;;
7150;SDS011;3617;48.836;9.172;2023-04-24T12:06:10;1.10;;;0.97;;
7150;SDS011;3617;48.836;9.172;2023-04-24T12:08:36;1.30;;;1.20;;
7150;SDS011;3617;48.836;9.172;2023-04-24T12:11:03;1.20;;;1.10;;
7150;SDS011;3617;48.836;9.172;2023-04-24T12:13:30;1.10;;;1.00;;
7150;SDS011;3617;48.836;9.172;2023-04-24T12:15:56;2.93;;;1.27;;
7150;SDS011;3617;48.836;9.172;2023-04-24T12:18:23;3.53;;;1.50;;
7150;SDS011;3617;48.836;9.172;2023-04-24T12:20:49;2.30;;;1.50;;
7150;SDS011;3617;48.836;9.172;2023-04-24T12:23:15;2.37;;;1.17;;
7150;SDS011;3617;48.836;9.172;2023-04-24T12:25:42;1.53;;;1.20;;
7150;SDS011;3617;48.836;9.172;2023-04-24T12:28:09;1.50;;;1.20;;
7150;SDS011;3617;48.836;9.172;2023-04-24T12:30:39;1.30;;;1.20;;
7150;SDS011;3617;48.836;9.172;2023-04-24T12:33:05;1.20;;;1.10;;
7150;SDS011;3617;48.836;9.172;2023-04-24T12:35:32;1.27;;;1.00;;
7150;SDS011;3617;48.836;9.172;2023-04-24T12:38:13;1.10;;;1.00;;
7150;SDS011;3617;48.836;9.172;2023-04-24T12:40:40;1.93;;;1.30;;
7150;SDS011;3617;48.836;9.172;2023-04-24T12:43:16;1.43;;;1.20;;
7150;SDS011;3617;48.836;9.172;2023-04-24T12:45:42;2.60;;;1.50;;
7150;SDS011;3617;48.836;9.172;2023-04-24T12:48:09;3.30;;;1.20;;
7150;SDS011;3617;48.836;9.172;2023-04-24T12:50:35;2.80;;;1.37;;
7150;SDS011;3617;48.836;9.172;2023-04-24T12:53:01;1.53;;;1.20;;
7150;SDS011;3617;48.836;9.172;2023-04-24T12:55:27;2.03;;;1.30;;
7150;SDS011;3617;48.836;9.172;2023-04-24T12:57:53;1.17;;;1.07;;
7150;SDS011;3617;48.836;9.172;2023-04-24T13:00:21;2.23;;;1.10;;
7150;SDS011;3617;48.836;9.172;2023-04-24T13:02:47;1.50;;;1.20;;
7150;SDS011;3617;48.836;9.172;2023-04-24T13:05:13;1.10;;;0.90;;
7150;SDS011;3617;48.836;9.172;2023-04-24T13:07:40;1.70;;;1.00;;
7150;SDS011;3617;48.836;9.172;2023-04-24T13:10:06;1.03;;;0.97;;
7150;SDS011;3617;48.836;9.172;2023-04-24T13:12:32;1.70;;;1.03;;
7150;SDS011;3617;48.836;9.172;2023-04-24T13:14:58;1.10;;;1.00;;
7150;SDS011;3617;48.836;9.172;2023-04-24T13:17:24;1.30;;;1.00;;
7150;SDS011;3617;48.836;9.172;2023-04-24T13:19:51;1.40;;;1.30;;
7150;SDS011;3617;48.836;9.172;2023-04-24T13:22:17;2.83;;;1.70;;
7150;SDS011;3617;48.836;9.172;2023-04-24T13:24:46;2.60;;;1.37;;
7150;SDS011;3617;48.836;9.172;2023-04-24T13:27:13;3.17;;;1.60;;
7150;SDS011;3617;48.836;9.172;2023-04-24T13:29:39;2.50;;;1.50;;
7150;SDS011;3617;48.836;9.172;2023-04-24T13:32:06;2.80;;;1.53;;
7150;SDS011;3617;48.836;9.172;2023-04-24T13:34:32;2.80;;;1.50;;
7150;SDS011;3617;48.836;9.172;2023-04-24T13:36:59;1.40;;;1.30;;
7150;SDS011;3617;48.836;9.172;2023-04-24T13:39:25;3.30;;;1.40;;
7150;SDS011;3617;48.836;9.172;2023-04-24T13:41:51;1.83;;;1.40;;
7150;SDS011;3617;48.836;9.172;2023-04-24T13:44:18;3.27;;;1.80;;
7150;SDS011;3617;48.836;9.172;2023-04-24T13:46:45;2.00;;;1.53;;
7150;SDS011;3617;48.836;9.172;2023-04-24T13:49:12;1.97;;;1.50;;
7150;SDS011;3617;48.836;9.172;2023-04-24T13:51:38;3.80;;;1.47;;
7150;SDS011;3617;48.836;9.172;2023-04-24T13:54:05;1.70;;;1.10;;
7150;SDS011;3617;48.836;9.172;2023-04-24T13:56:31;1.50;;;1.33;;
7150;SDS011;3617;48.836;9.172;2023-04-24T13:58:57;1.33;;;1.20;;
7150;SDS011;3617;48.836;9.172;2023-04-24T14:01:23;1.60;;;1.40;;
7150;SDS011;3617;48.836;9.172;2023-04-24T14:03:53;1.47;;;1.20;;
7150;SDS011;3617;48.836;9.172;2023-04-24T14:06:19;1.80;;;1.43;;
7150;SDS011;3617;48.836;9.172;2023-04-24T14:08:45;1.60;;;1.40;;
7150;SDS011;3617;48.836;9.172;2023-04-24T14:11:11;1.20;;;1.10;;
7150;SDS011;3617;48.836;9.172;2023-04-24T14:13:37;1.70;;;1.60;;
7150;SDS011;3617;48.836;9.172;2023-04-24T14:16:04;1.33;;;1.23;;
7150;SDS011;3617;48.836;9.172;2023-04-24T14:18:30;1.30;;;1.20;;
7150;SDS011;3617;48.836;9.172;2023-04-24T14:20:56;1.53;;;1.10;;
7150;SDS011;3617;48.836;9.172;2023-04-24T14:23:22;1.90;;;1.43;;
7150;SDS011;3617;48.836;9.172;2023-04-24T14:25:48;1.53;;;1.20;;
7150;SDS011;3617;48.836;9.172;2023-04-24T14:28:17;2.10;;;1.20;;
7150;SDS011;3617;48.836;9.172;2023-04-24T14:30:44;1.87;;;1.30;;
7150;SDS011;3617;48.836;9.172;2023-04-24T14:33:10;2.53;;;1.30;;
7150;SDS011;3617;48.836;9.172;2023-04-24T14:35:37;2.57;;;1.20;;
7150;SDS011;3617;48.836;9.172;2023-04-24T14:38:03;2.10;;;1.30;;
7150;SDS011;3617;48.836;9.172;2023-04-24T14:40:29;1.80;;;1.50;;
7150;SDS011;3617;48.836;9.172;2023-04-24T14:42:56;2.90;;;1.27;;
7150;SDS011;3617;48.836;9.172;2023-04-24T14:45:22;1.33;;;1.20;;
7150;SDS011;3617;48.836;9.172;2023-04-24T14:47:48;2.00;;;1.30;;
7150;SDS011;3617;48.836;9.172;2023-04-24T14:50:14;1.83;;;1.30;;
7150;SDS011;3617;48.836;9.172;2023-04-24T14:52:40;1.90;;;1.50;;
7150;SDS011;3617;48.836;9.172;2023-04-24T14:55:06;1.83;;;1.27;;
7150;SDS011;3617;48.836;9.172;2023-04-24T14:57:33;2.87;;;1.20;;
7150;SDS011;3617;48.836;9.172;2023-04-24T14:59:59;1.97;;;1.47;;
7150;SDS011;3617;48.836;9.172;2023-04-24T15:02:25;2.63;;;1.30;;
7150;SDS011;3617;48.836;9.172;2023-04-24T15:04:51;1.40;;;1.30;;
7150;SDS011;3617;48.836;9.172;2023-04-24T15:07:17;1.67;;;1.30;;
7150;SDS011;3617;48.836;9.172;2023-04-24T15:09:43;2.73;;;1.37;;
7150;SDS011;3617;48.836;9.172;2023-04-24T15:12:11;1.50;;;1.40;;
7150;SDS011;3617;48.836;9.172;2023-04-24T15:14:37;2.27;;;1.40;;
7150;SDS011;3617;48.836;9.172;2023-04-24T15:17:04;2.50;;;1.60;;
7150;SDS011;3617;48.836;9.172;2023-04-24T15:19:30;1.93;;;1.53;;
7150;SDS011;3617;48.836;9.172;2023-04-24T15:21:56;1.43;;;1.33;;
7150;SDS011;3617;48.836;9.172;2023-04-24T15:24:22;2.37;;;1.50;;